createdAt,value
2018-01-16T06:11:45.894Z,89.27
2018-01-16T06:14:14.870Z,88.89
2018-01-16T06:16:43.723Z,88.20
2018-01-16T06:19:12.555Z,86.00
2018-01-16T06:21:41.385Z,86.04
2018-01-16T06:24:10.185Z,86.04
2018-01-16T06:26:40.183Z,85.37
2018-01-16T06:29:09.205Z,84.88
2018-01-16T06:31:38.109Z,84.13
2018-01-16T06:34:07.010Z,82.84
2018-01-16T06:36:35.935Z,81.64
2018-01-16T06:39:04.885Z,82.14
2018-01-16T06:41:36.188Z,81.20
2018-01-16T06:44:05.094Z,79.48
2018-01-16T06:46:33.948Z,80.60
2018-01-16T06:49:02.838Z,80.57
2018-01-16T06:51:31.764Z,79.67
2018-01-16T06:54:00.637Z,79.23
2018-01-16T06:56:30.338Z,79.64
2018-01-16T06:58:59.174Z,79.46
2018-01-16T07:01:27.988Z,79.87
2018-01-16T07:03:56.901Z,80.61
2018-01-16T07:06:25.742Z,80.97
2018-01-16T07:08:54.562Z,80.14
2018-01-16T07:11:24.337Z,78.30
2018-01-16T07:13:53.231Z,77.23
2018-01-16T07:16:22.066Z,76.88
2018-01-16T07:18:52.610Z,77.58
2018-01-16T07:21:21.879Z,77.59
2018-01-16T07:23:50.830Z,77.32
2018-01-16T07:26:19.737Z,76.91
2018-01-16T07:28:48.621Z,78.38
2018-01-16T07:31:17.539Z,79.31
2018-01-16T07:33:48.922Z,79.48
2018-01-16T07:36:17.813Z,80.02
2018-01-16T07:38:46.685Z,78.70
2018-01-16T07:41:15.593Z,77.73
2018-01-16T07:43:45.271Z,77.94
2018-01-16T07:46:14.115Z,76.41
2018-01-16T07:48:43.067Z,77.32
2018-01-16T07:51:11.904Z,75.44
2018-01-16T07:53:40.770Z,74.89
2018-01-16T07:56:11.490Z,74.07
2018-01-16T07:58:40.358Z,76.25
2018-01-16T08:01:09.183Z,74.04
2018-01-16T08:03:39.114Z,74.49
2018-01-16T08:06:08.010Z,74.97
2018-01-16T08:08:36.800Z,75.60
2018-01-16T08:11:05.664Z,74.49
2018-01-16T08:13:34.599Z,75.15
2018-01-16T08:16:03.429Z,74.86
2018-01-16T08:18:32.555Z,74.65
2018-01-16T08:21:01.543Z,76.08
2018-01-16T08:23:30.398Z,74.79
2018-01-16T08:25:59.474Z,74.84
2018-01-16T08:28:29.420Z,72.88
2018-01-16T08:30:58.326Z,74.49
2018-01-16T08:33:27.402Z,74.97
2018-01-16T08:35:56.286Z,75.71
2018-01-16T08:38:25.237Z,74.65
2018-01-16T08:40:55.274Z,74.11
2018-01-16T08:43:24.142Z,73.32
2018-01-16T08:45:54.337Z,73.51
2018-01-16T08:48:24.048Z,73.57
2018-01-16T08:50:53.041Z,74.63
2018-01-16T08:53:21.990Z,73.93
2018-01-16T08:55:50.919Z,74.96
2018-01-16T08:58:19.856Z,73.16
2018-01-16T09:00:48.706Z,74.04
2018-01-16T09:03:17.695Z,76.01
2018-01-16T09:05:46.616Z,77.10
2018-01-16T09:08:15.482Z,78.13
2018-01-16T09:10:46.029Z,76.76
2018-01-16T09:13:14.858Z,75.69
2018-01-16T09:15:43.767Z,74.88
2018-01-16T09:18:12.716Z,73.97
2018-01-16T09:20:41.624Z,72.48
2018-01-16T09:25:53.194Z,73.39
2018-01-16T09:28:24.630Z,73.10
2018-01-16T09:30:53.537Z,74.19
2018-01-16T09:33:22.530Z,74.27
2018-01-16T09:35:53.124Z,73.58
2018-01-16T09:38:21.962Z,74.19
2018-01-16T09:40:51.860Z,73.26
2018-01-16T09:43:21.644Z,72.01
2018-01-16T09:45:50.462Z,70.49
2018-01-16T09:48:19.299Z,71.70
2018-01-16T09:50:48.416Z,72.82
2018-01-16T09:53:17.336Z,71.64
2018-01-16T09:55:47.354Z,69.63
2018-01-16T09:58:17.360Z,71.92
2018-01-16T10:03:21.412Z,73.45
2018-01-16T10:05:51.218Z,70.94
2018-01-16T10:08:20.240Z,69.94
2018-01-16T10:10:51.033Z,69.52
2018-01-16T10:13:21.501Z,71.95
2018-01-16T10:15:50.466Z,71.70
2018-01-16T10:18:19.562Z,69.30
2018-01-16T10:20:48.550Z,69.43
2018-01-16T10:23:20.190Z,69.19
2018-01-16T10:25:49.589Z,69.20
2018-01-16T10:28:18.751Z,68.91
2018-01-16T10:30:48.422Z,69.39
2018-01-16T10:33:17.515Z,70.12
2018-01-16T10:35:46.673Z,69.72
2018-01-16T10:38:15.577Z,69.91
2018-01-16T10:40:48.185Z,69.38
2018-01-16T10:43:18.329Z,68.94
2018-01-16T10:45:47.707Z,70.01
2018-01-16T10:48:18.546Z,70.60
2018-01-16T10:50:47.641Z,70.12
2018-01-16T10:53:16.670Z,68.70
2018-01-16T10:55:45.969Z,69.04
2018-01-16T10:58:15.034Z,69.91
2018-01-16T11:00:44.029Z,69.01
2018-01-16T11:03:13.968Z,69.28
2018-01-16T11:05:44.687Z,69.52
2018-01-16T11:08:16.048Z,69.07
2018-01-16T11:10:45.150Z,70.03
2018-01-16T11:13:14.333Z,70.65
2018-01-16T11:15:47.108Z,69.95
2018-01-16T11:18:16.004Z,70.66
2018-01-16T11:20:44.856Z,70.00
2018-01-16T11:23:15.328Z,69.78
2018-01-16T11:25:44.161Z,69.70
2018-01-16T11:28:13.098Z,70.85
2018-01-16T11:30:42.971Z,70.58
2018-01-16T11:33:11.789Z,71.47
2018-01-16T11:35:40.617Z,70.84
2018-01-16T11:38:09.501Z,69.69
2018-01-16T11:40:38.378Z,70.32
2018-01-16T11:43:07.244Z,69.81
2018-01-16T11:45:38.682Z,71.34
2018-01-16T11:48:07.533Z,71.03
2018-01-16T11:50:36.381Z,69.86
2018-01-16T11:53:05.390Z,71.17
2018-01-16T11:55:34.329Z,70.99
2018-01-16T11:58:03.252Z,69.68
2018-01-16T12:00:34.582Z,69.38
2018-01-16T12:03:03.435Z,69.75
2018-01-16T12:05:32.367Z,69.21
2018-01-16T12:08:02.285Z,69.58
2018-01-16T12:10:31.113Z,69.80
2018-01-16T12:12:59.977Z,68.09
2018-01-16T12:15:29.824Z,68.48
2018-01-16T12:17:58.780Z,69.23
2018-01-16T12:20:27.689Z,69.61
2018-01-16T12:22:57.586Z,68.74
2018-01-16T12:25:26.416Z,68.36
2018-01-16T12:27:55.244Z,68.79
2018-01-16T12:30:24.348Z,68.75
2018-01-16T12:32:53.209Z,68.87
2018-01-16T12:35:22.117Z,68.81
2018-01-16T12:37:51.000Z,69.23
2018-01-16T12:40:19.944Z,68.32
2018-01-16T12:42:48.813Z,67.61
2018-01-16T12:45:17.913Z,67.90
2018-01-16T12:47:46.789Z,67.32
2018-01-16T12:50:15.645Z,68.39
2018-01-16T12:52:45.342Z,67.79
2018-01-16T12:55:14.219Z,66.49
2018-01-16T12:57:43.123Z,66.73
2018-01-16T13:00:14.475Z,66.07
2018-01-16T13:02:43.406Z,67.15
2018-01-16T13:05:12.254Z,66.84
2018-01-16T13:07:41.284Z,66.56
2018-01-16T13:10:10.248Z,67.00
2018-01-16T13:12:39.087Z,67.70
2018-01-16T13:15:09.824Z,67.27
2018-01-16T13:17:38.655Z,66.45
2018-01-16T13:20:07.601Z,66.17
2018-01-16T13:22:36.462Z,65.48
2018-01-16T13:25:05.337Z,66.52
2018-01-16T13:27:34.157Z,66.80
2018-01-16T13:30:08.227Z,66.80
2018-01-16T13:32:37.061Z,67.29
2018-01-16T13:35:05.978Z,65.79
2018-01-16T13:37:34.905Z,65.77
2018-01-16T13:40:03.773Z,65.70
2018-01-16T13:42:32.651Z,65.75
2018-01-16T13:45:03.201Z,65.69
2018-01-16T13:47:32.040Z,65.97
2018-01-16T13:50:00.928Z,66.31
2018-01-16T13:52:30.677Z,66.25
2018-01-16T13:54:59.554Z,65.75
2018-01-16T13:57:28.405Z,66.80
2018-01-16T13:59:59.006Z,66.70
2018-01-16T14:02:27.807Z,66.37
2018-01-16T14:04:56.687Z,66.16
2018-01-16T14:07:25.648Z,67.30
2018-01-16T14:09:54.525Z,67.46
2018-01-16T14:12:23.409Z,66.98
2018-01-16T14:14:52.290Z,67.30
2018-01-16T14:17:21.105Z,67.95
2018-01-16T14:19:49.918Z,68.43
2018-01-16T14:22:19.844Z,68.08
2018-01-16T14:24:48.768Z,68.01
2018-01-16T14:27:17.624Z,68.36
2018-01-16T14:29:49.109Z,69.12
2018-01-16T14:32:18.330Z,68.95
2018-01-16T14:34:51.155Z,69.20
2018-01-16T14:37:20.222Z,69.20
2018-01-16T14:39:49.314Z,68.41
2018-01-16T14:42:19.267Z,68.81
2018-01-16T14:44:48.308Z,68.20
2018-01-16T14:47:18.152Z,68.34
2018-01-16T14:49:49.733Z,68.28
2018-01-16T14:52:19.461Z,69.83
2018-01-16T14:54:49.517Z,70.29
2018-01-16T14:57:20.455Z,70.42
2018-01-16T14:59:49.571Z,69.90
2018-01-16T15:02:19.548Z,69.73
2018-01-16T15:04:53.831Z,69.36
2018-01-16T15:07:23.691Z,69.46
2018-01-16T15:09:53.494Z,70.14
2018-01-16T15:12:22.532Z,70.90
2018-01-16T15:14:51.485Z,71.75
2018-01-16T15:17:20.938Z,71.78
2018-01-16T15:19:50.158Z,72.27
2018-01-16T15:22:19.176Z,72.56
2018-01-16T15:24:48.347Z,72.46
2018-01-16T15:27:19.883Z,72.82
2018-01-16T15:29:49.239Z,73.75
2018-01-16T15:32:18.732Z,74.42
2018-01-16T15:34:48.000Z,73.74
2018-01-16T15:37:17.030Z,73.78
2018-01-16T15:39:46.134Z,73.15
2018-01-16T15:42:16.376Z,72.13
2018-01-16T15:44:45.610Z,72.44
2018-01-16T15:47:14.595Z,71.73
2018-01-16T15:49:43.770Z,71.36
2018-01-16T15:52:13.655Z,72.03
2018-01-16T15:54:43.779Z,72.53
2018-01-16T15:57:17.236Z,72.61
2018-01-16T15:59:46.786Z,72.34
2018-01-16T16:02:15.958Z,72.73
2018-01-16T16:04:46.815Z,71.99
2018-01-16T16:07:16.425Z,71.74
2018-01-16T16:09:46.132Z,71.80
2018-01-16T16:12:15.234Z,71.59
2018-01-16T16:14:45.028Z,71.45
2018-01-16T16:17:14.030Z,71.50
2018-01-16T16:19:44.774Z,71.30
2018-01-16T16:22:14.620Z,71.19
2018-01-16T16:24:43.890Z,71.35
2018-01-16T16:27:15.784Z,71.62
2018-01-16T16:29:44.879Z,71.27
2018-01-16T16:32:15.734Z,71.39
2018-01-16T16:34:47.237Z,70.80
2018-01-16T16:37:16.333Z,70.13
2018-01-16T16:39:45.428Z,71.29
2018-01-16T16:42:14.655Z,71.47
2018-01-16T16:44:44.744Z,71.38
2018-01-16T16:47:13.958Z,71.47
2018-01-16T16:49:45.003Z,71.09
2018-01-16T16:52:15.046Z,71.29
2018-01-16T16:54:44.592Z,72.55
2018-01-16T16:57:15.959Z,73.28
2018-01-16T16:59:45.985Z,74.32
2018-01-16T17:02:18.356Z,73.83
2018-01-16T17:04:47.448Z,74.68
2018-01-16T17:07:16.500Z,74.79
2018-01-16T17:09:47.181Z,74.86
2018-01-16T17:12:16.347Z,74.47
2018-01-16T17:14:46.952Z,74.51
2018-01-16T17:17:16.210Z,74.57
2018-01-16T17:19:46.858Z,74.56
2018-01-16T17:22:17.508Z,74.68
2018-01-16T17:24:47.649Z,75.68
2018-01-16T17:27:19.622Z,75.35
2018-01-16T17:29:49.058Z,75.80
2018-01-16T17:32:18.297Z,75.93
2018-01-16T17:34:51.960Z,76.24
2018-01-16T17:37:21.546Z,77.39
2018-01-16T17:39:50.774Z,77.17
2018-01-16T17:42:20.169Z,77.22
2018-01-16T17:44:50.149Z,77.35
2018-01-16T17:47:19.284Z,77.98
2018-01-16T17:49:49.542Z,77.52
2018-01-16T17:52:18.818Z,78.49
2018-01-16T17:54:48.013Z,80.25
2018-01-16T17:57:17.528Z,79.42
2018-01-16T17:59:48.297Z,79.11
2018-01-16T18:02:17.427Z,79.29
2018-01-16T18:04:47.640Z,79.36
2018-01-16T18:07:18.276Z,79.26
2018-01-16T18:09:47.581Z,80.08
2018-01-16T18:12:17.752Z,80.24
2018-01-16T18:14:47.686Z,79.90
2018-01-16T18:17:17.542Z,79.61
2018-01-16T18:19:47.405Z,79.65
2018-01-16T18:22:16.645Z,79.98
2018-01-16T18:24:47.413Z,80.30
2018-01-16T18:27:17.695Z,80.98
2018-01-16T18:29:51.020Z,81.10
2018-01-16T18:32:22.615Z,80.64
2018-01-16T18:34:51.788Z,80.43
2018-01-16T18:37:21.493Z,81.72
2018-01-16T18:39:50.780Z,82.06
2018-01-16T18:42:20.180Z,82.24
2018-01-16T18:44:50.065Z,83.21
2018-01-16T18:47:20.357Z,83.29
2018-01-16T18:49:49.672Z,84.12
2018-01-16T18:52:19.037Z,84.66
2018-01-16T18:54:54.424Z,84.34
2018-01-16T18:57:23.397Z,83.40
2018-01-16T18:59:52.306Z,82.74
2018-01-16T19:02:21.438Z,82.41
2018-01-16T19:04:50.405Z,82.71
2018-01-16T19:07:19.291Z,82.93
2018-01-16T19:09:48.233Z,83.59
2018-01-16T19:12:17.090Z,84.12
2018-01-16T19:14:45.961Z,83.88
2018-01-16T19:17:15.600Z,84.04
2018-01-16T19:19:44.520Z,84.66
2018-01-16T19:22:13.716Z,85.67
2018-01-16T19:24:43.546Z,85.34
2018-01-16T19:27:12.555Z,86.33
2018-01-16T19:29:41.583Z,85.85
2018-01-16T19:32:11.432Z,86.41
2018-01-16T19:34:40.445Z,86.43
2018-01-16T19:37:09.375Z,85.16
2018-01-16T19:39:39.393Z,86.40
2018-01-16T19:44:36.127Z,88.04
2018-01-16T19:47:05.397Z,88.47
2018-01-16T19:49:34.369Z,88.53
2018-01-16T19:52:03.439Z,88.15
2018-01-16T19:54:34.202Z,88.21
2018-01-16T19:57:04.187Z,88.11
2018-01-16T19:59:33.414Z,87.93
2018-01-16T20:02:03.301Z,87.99
2018-01-16T20:04:33.168Z,88.47
2018-01-16T20:07:02.518Z,88.19
2018-01-16T20:09:33.817Z,88.51
2018-01-16T20:12:03.970Z,88.79
2018-01-16T20:14:45.356Z,87.99
2018-01-16T20:17:14.472Z,88.21
2018-01-16T20:19:43.632Z,88.03
2018-01-16T20:22:12.774Z,88.13
2018-01-16T20:24:41.932Z,88.32
2018-01-16T20:27:10.895Z,88.37
2018-01-16T20:29:40.774Z,88.67
2018-01-16T20:32:09.914Z,89.63
2018-01-16T20:34:38.957Z,89.58
2018-01-16T20:37:08.865Z,89.64
2018-01-16T20:39:37.683Z,89.62
2018-01-16T20:42:06.612Z,89.27
2018-01-16T20:44:35.556Z,89.55
2018-01-16T20:47:04.413Z,89.62
2018-01-16T20:49:33.269Z,89.78
2018-01-16T20:52:02.245Z,89.74
2018-01-16T20:54:31.075Z,90.32
2018-01-16T20:56:59.977Z,90.23
2018-01-16T20:59:29.101Z,90.07
2018-01-16T21:01:58.190Z,90.62
2018-01-16T21:04:27.119Z,90.49
2018-01-16T21:06:59.644Z,90.77
2018-01-16T21:09:28.641Z,91.03
2018-01-16T21:11:57.632Z,91.68
2018-01-16T21:14:27.345Z,91.87
2018-01-16T21:16:56.194Z,91.81
2018-01-16T21:19:25.135Z,91.14
2018-01-16T21:21:54.901Z,90.87
2018-01-16T21:24:24.855Z,90.86
2018-01-16T21:26:53.994Z,91.53
2018-01-16T21:29:23.434Z,92.53
2018-01-16T21:31:53.209Z,91.17
2018-01-16T21:34:22.307Z,90.80
2018-01-16T21:36:52.615Z,91.32
2018-01-16T21:39:21.555Z,90.50
2018-01-16T21:41:51.486Z,90.03
2018-01-16T21:44:22.166Z,89.80
2018-01-16T21:46:51.163Z,89.23
2018-01-16T21:49:20.186Z,88.79
2018-01-16T21:51:50.379Z,89.49
2018-01-16T21:54:21.380Z,88.65
2018-01-16T21:56:50.657Z,89.62
2018-01-16T21:59:20.857Z,89.65
2018-01-16T22:01:50.137Z,89.89
2018-01-16T22:04:19.043Z,89.34
2018-01-16T22:06:58.197Z,89.27
2018-01-16T22:09:27.402Z,89.49
2018-01-16T22:11:57.319Z,89.63
2018-01-16T22:14:28.211Z,89.75
2018-01-16T22:16:57.351Z,88.82
2018-01-16T22:19:27.271Z,88.20
2018-01-16T22:21:56.364Z,88.63
2018-01-16T22:24:26.214Z,88.90
2018-01-16T22:26:55.419Z,88.78
2018-01-16T22:29:24.503Z,89.21
2018-01-16T22:31:53.772Z,89.54
2018-01-16T22:34:23.891Z,89.30
2018-01-16T22:36:53.861Z,89.24
2018-01-16T22:39:23.621Z,88.93
2018-01-16T22:41:52.613Z,88.67
2018-01-16T22:44:22.600Z,88.59
2018-01-16T22:46:51.681Z,88.70
2018-01-16T22:49:20.971Z,89.25
2018-01-16T22:51:52.513Z,89.17
2018-01-16T22:54:22.553Z,89.09
2018-01-16T22:56:51.765Z,89.69
2018-01-16T22:59:24.033Z,89.45
2018-01-16T23:01:53.064Z,90.01
2018-01-16T23:04:22.192Z,89.65
2018-01-16T23:06:51.358Z,89.98
2018-01-16T23:09:20.431Z,90.40
2018-01-16T23:11:49.635Z,89.91
2018-01-16T23:14:20.692Z,89.72
2018-01-16T23:16:50.698Z,89.81
2018-01-16T23:19:20.927Z,89.57
2018-01-16T23:21:51.154Z,89.51
2018-01-16T23:24:20.552Z,89.38
2018-01-16T23:26:49.715Z,89.30
2018-01-16T23:29:28.232Z,89.48
2018-01-16T23:31:57.499Z,89.49
2018-01-16T23:34:26.402Z,89.20
2018-01-16T23:36:55.661Z,88.82
2018-01-16T23:39:24.687Z,89.38
2018-01-16T23:41:53.975Z,89.38
2018-01-16T23:44:22.993Z,89.30
2018-01-16T23:46:52.921Z,89.24
2018-01-16T23:49:21.825Z,88.46
2018-01-16T23:51:53.515Z,88.44
2018-01-16T23:54:22.499Z,88.16
2018-01-16T23:56:52.421Z,87.85
2018-01-16T23:59:21.875Z,87.57
